createdAt,value
2019-04-20T00:00:40.324Z,82.68
2019-04-20T00:03:05.799Z,82.56
2019-04-20T00:05:35.017Z,83.10
2019-04-20T00:08:08.873Z,82.72
2019-04-20T00:10:43.308Z,82.59
2019-04-20T00:13:16.632Z,83.51
2019-04-20T00:15:34.600Z,84.25
2019-04-20T00:18:06.262Z,84.44
2019-04-20T00:20:35.896Z,84.44
2019-04-20T00:23:05.817Z,85.04
2019-04-20T00:26:02.696Z,85.30
2019-04-20T00:28:39.786Z,85.38
2019-04-20T00:31:09.743Z,85.81
2019-04-20T00:33:37.077Z,86.28
2019-04-20T00:35:52.838Z,86.95
2019-04-20T00:38:22.738Z,87.51
2019-04-20T00:40:58.266Z,87.39
2019-04-20T00:43:28.310Z,87.89
2019-04-20T00:45:58.583Z,88.50
2019-04-20T00:48:31.552Z,89.14
2019-04-20T00:51:06.950Z,89.66
2019-04-20T00:53:30.300Z,90.22
2019-04-20T00:55:51.021Z,90.20
2019-04-20T00:58:27.343Z,90.02
2019-04-20T01:01:12.786Z,90.58
2019-04-20T01:03:34.089Z,90.64
2019-04-20T01:06:24.736Z,90.97
2019-04-20T01:08:38.065Z,91.07
2019-04-20T01:11:06.362Z,91.40
2019-04-20T01:13:42.120Z,91.56
2019-04-20T01:16:08.733Z,93.24
2019-04-20T01:18:34.628Z,94.69
2019-04-20T01:21:06.721Z,94.87
2019-04-20T01:23:40.192Z,94.61
2019-04-20T01:26:08.828Z,94.49
2019-04-20T01:28:46.426Z,94.67
2019-04-20T01:31:14.685Z,95.08
2019-04-20T01:33:42.659Z,95.38
2019-04-20T01:36:19.598Z,96.28
2019-04-20T01:38:49.791Z,97.08
2019-04-20T01:41:03.382Z,97.17
2019-04-20T01:43:31.639Z,97.00
2019-04-20T01:46:07.922Z,97.46
2019-04-20T01:48:34.009Z,98.42
2019-04-20T01:51:07.268Z,99.80
2019-04-20T01:53:50.380Z,100.00
2019-04-20T01:56:24.388Z,100.00
2019-04-20T01:58:58.191Z,100.00
2019-04-20T02:01:31.131Z,100.00
2019-04-20T02:04:01.892Z,100.00
2019-04-20T02:06:41.530Z,100.00
2019-04-20T02:09:06.777Z,100.00
2019-04-20T02:11:37.631Z,100.00
2019-04-20T02:14:06.770Z,100.00
2019-04-20T02:16:39.292Z,100.00
2019-04-20T02:19:18.679Z,100.00
2019-04-20T02:21:47.692Z,100.00
2019-04-20T02:24:05.953Z,100.00
2019-04-20T02:26:32.610Z,100.00
2019-04-20T02:29:24.590Z,100.00
2019-04-20T02:34:39.754Z,100.00
2019-04-20T02:37:17.320Z,100.00
2019-04-20T02:39:46.723Z,100.00
2019-04-20T02:49:41.989Z,100.00
2019-04-20T02:52:25.038Z,100.00
2019-04-20T02:54:46.434Z,100.00
2019-04-20T02:57:15.086Z,100.00
2019-04-20T03:02:01.517Z,100.00
2019-04-20T03:04:20.356Z,100.00
2019-04-20T03:06:54.998Z,100.00
2019-04-20T03:09:32.490Z,100.00
2019-04-20T03:12:04.950Z,100.00
2019-04-20T03:14:29.282Z,100.00
2019-04-20T03:17:08.595Z,100.00
2019-04-20T03:19:25.052Z,99.76
2019-04-20T03:22:03.859Z,99.18
2019-04-20T03:24:38.877Z,98.71
2019-04-20T03:26:59.566Z,100.00
2019-04-20T03:29:38.362Z,100.00
2019-04-20T03:32:44.906Z,100.00
2019-04-20T03:35:00.571Z,100.00
2019-04-20T03:37:25.374Z,100.00
2019-04-20T03:39:42.343Z,100.00
2019-04-20T03:41:56.656Z,100.00
2019-04-20T03:44:26.460Z,100.00
2019-04-20T03:47:00.867Z,100.00
2019-04-20T03:49:49.454Z,100.00
2019-04-20T03:52:27.768Z,100.00
2019-04-20T03:55:07.600Z,100.00
2019-04-20T03:57:58.746Z,100.00
2019-04-20T04:00:36.472Z,100.00
2019-04-20T04:03:31.915Z,100.00
2019-04-20T04:05:48.148Z,100.00
2019-04-20T04:08:12.185Z,100.00
2019-04-20T04:10:50.531Z,100.00
2019-04-20T04:13:12.962Z,100.00
2019-04-20T04:15:48.786Z,100.00
2019-04-20T04:18:21.871Z,100.00
2019-04-20T04:20:53.258Z,100.00
2019-04-20T04:23:35.670Z,100.00
2019-04-20T04:26:05.824Z,100.00
2019-04-20T04:28:31.084Z,100.00
2019-04-20T04:31:04.163Z,100.00
2019-04-20T04:36:01.041Z,100.00
2019-04-20T04:38:39.615Z,100.00
2019-04-20T04:43:36.310Z,100.00
2019-04-20T04:45:44.891Z,100.00
2019-04-20T04:48:21.288Z,100.00
2019-04-20T04:50:52.196Z,100.00
2019-04-20T04:53:28.511Z,100.00
2019-04-20T04:55:52.398Z,100.00
2019-04-20T04:58:13.155Z,100.00
2019-04-20T05:00:42.479Z,100.00
2019-04-20T05:03:26.691Z,100.00
2019-04-20T05:06:07.211Z,100.00
2019-04-20T05:08:25.344Z,100.00
2019-04-20T05:10:47.900Z,100.00
2019-04-20T05:13:16.206Z,100.00
2019-04-20T05:15:59.301Z,100.00
2019-04-20T05:18:41.782Z,99.77
2019-04-20T05:21:05.907Z,99.04
2019-04-20T05:23:32.004Z,97.79
2019-04-20T05:26:22.277Z,97.35
2019-04-20T05:28:40.598Z,95.90
2019-04-20T05:31:03.055Z,92.69
2019-04-20T05:33:48.892Z,91.21
2019-04-20T05:36:18.521Z,90.67
2019-04-20T05:39:19.518Z,88.58
2019-04-20T05:41:16.911Z,86.62
2019-04-20T05:43:59.717Z,85.57
2019-04-20T05:46:33.594Z,83.47
2019-04-20T05:49:03.299Z,83.28
2019-04-20T05:51:36.566Z,82.64
2019-04-20T05:54:05.625Z,82.19
2019-04-20T05:56:35.717Z,80.92
2019-04-20T05:58:59.525Z,80.96
2019-04-20T06:01:34.619Z,80.94
2019-04-20T06:04:03.047Z,80.30
2019-04-20T06:06:33.139Z,78.72
2019-04-20T06:11:34.699Z,76.70
2019-04-20T06:13:59.016Z,75.36
2019-04-20T06:16:46.842Z,73.07
2019-04-20T06:19:24.362Z,71.42
2019-04-20T06:21:57.654Z,71.46
2019-04-20T06:24:26.741Z,71.99
2019-04-20T06:29:20.647Z,70.54
2019-04-20T06:31:54.160Z,69.30
2019-04-20T06:36:57.287Z,69.63
2019-04-20T06:47:08.913Z,67.76
2019-04-20T06:49:35.436Z,66.35
2019-04-20T06:52:12.629Z,66.47
2019-04-20T06:54:35.860Z,67.17
2019-04-20T06:57:07.243Z,65.77
2019-04-20T06:59:39.045Z,65.85
2019-04-20T07:02:11.863Z,64.44
2019-04-20T07:04:46.085Z,64.49
2019-04-20T07:07:10.166Z,65.16
2019-04-20T07:12:02.966Z,61.23
2019-04-20T07:14:27.588Z,62.46
2019-04-20T07:17:16.195Z,60.96
2019-04-20T07:19:47.473Z,60.77
2019-04-20T07:22:32.231Z,60.54
2019-04-20T07:24:56.783Z,59.21
2019-04-20T07:27:24.389Z,59.31
2019-04-20T07:30:07.897Z,58.14
2019-04-20T07:32:20.374Z,57.96
2019-04-20T07:34:55.654Z,58.34
2019-04-20T07:37:46.692Z,57.84
2019-04-20T07:39:58.876Z,56.85
2019-04-20T07:42:29.353Z,55.10
2019-04-20T07:45:04.697Z,54.72
2019-04-20T07:47:32.854Z,55.67
2019-04-20T07:49:49.769Z,54.38
2019-04-20T07:52:04.026Z,53.62
2019-04-20T07:55:12.495Z,52.55
2019-04-20T07:57:19.497Z,49.74
2019-04-20T07:59:53.327Z,49.74
2019-04-20T08:02:32.005Z,50.85
2019-04-20T08:04:51.285Z,50.46
2019-04-20T08:07:09.140Z,50.42
2019-04-20T08:09:44.161Z,50.55
2019-04-20T08:12:35.575Z,50.54
2019-04-20T08:15:04.753Z,50.38
2019-04-20T08:17:44.290Z,49.88
2019-04-20T08:19:59.516Z,51.00
2019-04-20T08:22:27.019Z,50.80
2019-04-20T08:24:52.761Z,51.04
2019-04-20T08:27:16.315Z,50.78
2019-04-20T08:30:03.630Z,50.92
2019-04-20T08:32:38.943Z,50.96
2019-04-20T08:35:15.389Z,50.79
2019-04-20T08:37:40.103Z,51.82
2019-04-20T08:40:12.768Z,51.43
2019-04-20T08:42:51.226Z,51.19
2019-04-20T08:45:31.711Z,50.80
2019-04-20T08:47:51.848Z,51.13
2019-04-20T08:50:27.204Z,51.26
2019-04-20T08:55:17.001Z,48.95
2019-04-20T08:57:26.908Z,49.59
2019-04-20T08:59:56.050Z,49.67
2019-04-20T09:02:25.822Z,48.96
2019-04-20T09:05:01.060Z,48.53
2019-04-20T09:07:28.319Z,48.70
2019-04-20T09:10:16.379Z,48.84
2019-04-20T09:12:42.149Z,48.45
2019-04-20T09:14:55.187Z,49.47
2019-04-20T09:17:36.629Z,48.48
2019-04-20T09:20:06.052Z,48.24
2019-04-20T09:22:46.653Z,47.61
2019-04-20T09:25:42.528Z,47.32
2019-04-20T09:27:46.774Z,47.03
2019-04-20T09:30:25.718Z,47.67
2019-04-20T09:33:14.613Z,46.95
2019-04-20T09:35:44.447Z,47.40
2019-04-20T09:38:11.578Z,45.76
2019-04-20T09:40:58.323Z,45.37
2019-04-20T09:42:57.740Z,45.16
2019-04-20T09:45:37.080Z,45.15
2019-04-20T09:47:58.843Z,45.48
2019-04-20T09:50:43.761Z,44.58
2019-04-20T09:53:14.202Z,44.34
2019-04-20T09:55:37.805Z,43.76
2019-04-20T09:58:12.348Z,43.10
2019-04-20T10:00:56.701Z,43.80
2019-04-20T10:03:12.932Z,43.90
2019-04-20T10:05:41.684Z,44.55
2019-04-20T10:08:11.371Z,43.58
2019-04-20T10:10:43.508Z,43.03
2019-04-20T10:13:11.149Z,42.71
2019-04-20T10:15:39.710Z,41.63
2019-04-20T10:18:08.043Z,42.45
2019-04-20T10:20:38.769Z,41.75
2019-04-20T10:23:06.800Z,41.22
2019-04-20T10:25:36.332Z,42.36
2019-04-20T10:28:05.522Z,41.62
2019-04-20T10:30:34.684Z,40.99
2019-04-20T10:33:03.587Z,41.47
2019-04-20T10:35:31.892Z,40.88
2019-04-20T10:38:05.421Z,40.18
2019-04-20T10:40:46.147Z,39.92
2019-04-20T10:43:04.629Z,39.95
2019-04-20T10:45:34.930Z,38.96
2019-04-20T10:48:03.440Z,38.96
2019-04-20T10:50:32.325Z,38.74
2019-04-20T10:53:01.620Z,38.36
2019-04-20T10:55:31.326Z,38.60
2019-04-20T10:57:59.788Z,38.36
2019-04-20T11:00:44.019Z,38.46
2019-04-20T11:03:13.589Z,39.74
2019-04-20T11:05:42.628Z,37.92
2019-04-20T11:08:12.767Z,37.23
2019-04-20T11:10:55.674Z,35.62
2019-04-20T11:13:12.187Z,35.33
2019-04-20T11:15:40.629Z,37.00
2019-04-20T11:18:09.230Z,38.11
2019-04-20T11:20:37.527Z,38.25
2019-04-20T11:23:06.627Z,38.86
2019-04-20T11:25:34.959Z,37.99
2019-04-20T11:28:04.017Z,36.30
2019-04-20T11:30:32.368Z,36.87
2019-04-20T11:33:00.631Z,38.24
2019-04-20T11:35:34.361Z,37.47
2019-04-20T11:37:58.888Z,36.15
2019-04-20T11:40:27.149Z,36.40
2019-04-20T11:42:55.496Z,37.02
2019-04-20T11:45:24.767Z,37.08
2019-04-20T11:47:53.756Z,37.50
2019-04-20T11:50:22.126Z,35.66
2019-04-20T11:52:51.461Z,36.55
2019-04-20T11:55:20.184Z,35.97
2019-04-20T11:57:49.428Z,37.36
2019-04-20T12:00:22.078Z,36.55
2019-04-20T12:03:09.817Z,35.56
2019-04-20T12:05:39.673Z,35.23
2019-04-20T12:08:07.050Z,34.47
2019-04-20T12:10:35.400Z,36.19
2019-04-20T12:13:03.822Z,36.69
2019-04-20T12:15:35.031Z,36.42
2019-04-20T12:18:02.170Z,36.29
2019-04-20T12:20:30.437Z,34.87
2019-04-20T12:23:02.198Z,35.99
2019-04-20T12:25:33.325Z,35.50
2019-04-20T12:28:02.346Z,34.88
2019-04-20T12:30:30.687Z,35.17
2019-04-20T12:33:01.902Z,36.40
2019-04-20T12:35:29.976Z,35.77
2019-04-20T12:37:58.934Z,33.82
2019-04-20T12:40:28.130Z,34.88
2019-04-20T12:42:57.218Z,34.45
2019-04-20T12:45:25.972Z,33.82
2019-04-20T12:47:55.482Z,34.89
2019-04-20T12:50:23.918Z,35.59
2019-04-20T12:52:52.536Z,36.12
2019-04-20T12:55:20.939Z,35.76
2019-04-20T12:57:50.308Z,37.33
2019-04-20T13:00:19.523Z,37.72
2019-04-20T13:02:47.867Z,36.27
2019-04-20T13:05:17.580Z,37.18
2019-04-20T13:07:49.717Z,37.91
2019-04-20T13:10:16.057Z,36.62
2019-04-20T13:12:58.462Z,38.05
2019-04-20T13:15:32.146Z,37.09
2019-04-20T13:18:01.299Z,37.29
2019-04-20T13:20:30.015Z,37.06
2019-04-20T13:22:59.998Z,37.06
2019-04-20T13:25:28.793Z,37.35
2019-04-20T13:27:57.032Z,34.98
2019-04-20T13:30:28.086Z,35.34
2019-04-20T13:32:57.337Z,33.33
2019-04-20T13:35:26.079Z,34.45
2019-04-20T13:37:54.481Z,35.06
2019-04-20T13:40:23.853Z,34.29
2019-04-20T13:42:52.229Z,31.86
2019-04-20T13:45:21.253Z,31.96
2019-04-20T13:47:50.841Z,32.36
2019-04-20T13:50:20.045Z,31.82
2019-04-20T13:52:48.910Z,31.99
2019-04-20T13:55:17.313Z,31.76
2019-04-20T13:57:50.165Z,31.28
2019-04-20T14:00:40.942Z,30.66
2019-04-20T14:03:11.347Z,31.15
2019-04-20T14:05:40.507Z,32.85
2019-04-20T14:08:09.752Z,31.42
2019-04-20T14:10:39.586Z,31.99
2019-04-20T14:13:13.598Z,32.96
2019-04-20T14:15:37.913Z,31.82
2019-04-20T14:18:06.933Z,31.43
2019-04-20T14:20:36.217Z,30.77
2019-04-20T14:23:05.258Z,31.53
2019-04-20T14:25:33.613Z,31.53
2019-04-20T14:28:02.817Z,31.63
2019-04-20T14:30:31.057Z,31.74
2019-04-20T14:32:59.398Z,31.54
2019-04-20T14:35:29.101Z,32.01
2019-04-20T14:37:57.633Z,32.08
2019-04-20T14:40:26.196Z,31.41
2019-04-20T14:42:56.762Z,32.72
2019-04-20T14:45:24.773Z,31.75
2019-04-20T14:47:54.019Z,32.26
2019-04-20T14:50:23.455Z,32.47
2019-04-20T14:52:51.789Z,32.04
2019-04-20T14:55:21.155Z,31.11
2019-04-20T14:57:50.108Z,32.81
2019-04-20T15:00:53.082Z,31.69
2019-04-20T15:03:28.322Z,31.94
2019-04-20T15:05:59.977Z,32.00
2019-04-20T15:08:28.395Z,31.93
2019-04-20T15:10:57.097Z,32.37
2019-04-20T15:13:26.662Z,31.86
2019-04-20T15:15:55.017Z,32.20
2019-04-20T15:18:33.972Z,32.85
2019-04-20T15:21:09.610Z,33.05
2019-04-20T15:23:37.878Z,32.46
2019-04-20T15:26:06.600Z,33.06
2019-04-20T15:28:34.884Z,32.91
2019-04-20T15:31:03.166Z,33.50
2019-04-20T15:33:32.734Z,34.31
2019-04-20T15:36:02.191Z,33.76
2019-04-20T15:38:31.347Z,34.19
2019-04-20T15:40:59.750Z,33.93
2019-04-20T15:43:28.174Z,33.55
2019-04-20T15:45:57.331Z,35.07
2019-04-20T15:48:26.031Z,34.65
2019-04-20T15:50:54.349Z,34.67
2019-04-20T15:53:23.897Z,35.18
2019-04-20T15:55:52.491Z,34.82
2019-04-20T15:58:20.756Z,34.91
2019-04-20T16:00:50.892Z,34.48
2019-04-20T16:03:27.545Z,34.47
2019-04-20T16:05:58.812Z,35.25
2019-04-20T16:08:32.396Z,35.21
2019-04-20T16:11:04.646Z,36.63
2019-04-20T16:13:37.545Z,36.82
2019-04-20T16:16:03.530Z,35.43
2019-04-20T16:18:32.859Z,35.64
2019-04-20T16:21:07.928Z,35.64
2019-04-20T16:23:32.879Z,36.97
2019-04-20T16:26:05.950Z,36.11
2019-04-20T16:28:35.383Z,34.92
2019-04-20T16:31:07.011Z,36.23
2019-04-20T16:33:34.526Z,36.74
2019-04-20T16:36:03.049Z,36.74
2019-04-20T16:38:31.387Z,36.16
2019-04-20T16:41:00.023Z,36.80
2019-04-20T16:43:32.663Z,37.21
2019-04-20T16:45:59.271Z,36.71
2019-04-20T16:48:28.297Z,37.19
2019-04-20T16:50:56.540Z,36.47
2019-04-20T16:53:24.806Z,36.76
2019-04-20T16:55:53.065Z,37.23
2019-04-20T16:58:21.737Z,37.19
2019-04-20T17:00:50.119Z,38.23
2019-04-20T17:03:19.553Z,37.60
2019-04-20T17:05:50.991Z,38.66
2019-04-20T17:08:18.742Z,39.41
2019-04-20T17:10:48.716Z,38.88
2019-04-20T17:13:28.413Z,39.38
2019-04-20T17:15:47.870Z,38.50
2019-04-20T17:18:16.203Z,39.33
2019-04-20T17:20:44.455Z,38.63
2019-04-20T17:23:13.105Z,39.90
2019-04-20T17:25:41.943Z,39.31
2019-04-20T17:28:26.857Z,41.12
2019-04-20T17:30:56.972Z,41.33
2019-04-20T17:33:36.297Z,40.60
2019-04-20T17:36:09.996Z,41.64
2019-04-20T17:38:37.630Z,41.80
2019-04-20T17:41:16.707Z,41.39
2019-04-20T17:43:49.321Z,41.82
2019-04-20T17:46:10.157Z,42.56
2019-04-20T17:48:43.209Z,44.50
2019-04-20T17:51:25.422Z,43.69
2019-04-20T17:53:52.769Z,43.29
2019-04-20T17:56:17.344Z,44.72
2019-04-20T17:58:46.120Z,45.26
2019-04-20T18:01:47.825Z,44.98
2019-04-20T18:04:35.431Z,44.83
2019-04-20T18:06:47.784Z,44.58
2019-04-20T18:09:33.268Z,44.53
2019-04-20T18:11:43.766Z,45.09
2019-04-20T18:14:24.156Z,46.60
2019-04-20T18:17:05.829Z,45.96
2019-04-20T18:19:19.376Z,46.31
2019-04-20T18:21:45.616Z,47.60
2019-04-20T18:24:31.318Z,47.77
2019-04-20T18:26:59.636Z,48.81
2019-04-20T18:29:32.847Z,48.63
2019-04-20T18:31:51.478Z,49.23
2019-04-20T18:34:25.257Z,50.00
2019-04-20T18:36:52.741Z,49.18
2019-04-20T18:39:29.085Z,49.81
2019-04-20T18:41:57.198Z,49.11
2019-04-20T18:44:27.676Z,48.29
2019-04-20T18:47:12.517Z,48.59
2019-04-20T18:49:37.524Z,46.96
2019-04-20T18:51:51.707Z,46.95
2019-04-20T18:54:23.965Z,45.76
2019-04-20T18:56:51.280Z,46.46
2019-04-20T18:59:23.429Z,46.77
2019-04-20T19:01:50.927Z,47.27
2019-04-20T19:04:19.726Z,47.66
2019-04-20T19:06:48.059Z,47.10
2019-04-20T19:09:21.578Z,48.25
2019-04-20T19:11:55.870Z,48.71
2019-04-20T19:14:33.526Z,48.96
2019-04-20T19:17:08.872Z,47.23
2019-04-20T19:19:34.259Z,49.07
2019-04-20T19:21:58.390Z,48.98
2019-04-20T19:24:30.895Z,48.90
2019-04-20T19:27:01.686Z,48.95
2019-04-20T19:29:34.547Z,49.26
2019-04-20T19:32:18.258Z,49.70
2019-04-20T19:34:41.794Z,51.63
2019-04-20T19:37:13.347Z,53.96
2019-04-20T19:39:43.713Z,56.36
2019-04-20T19:42:13.080Z,57.59
2019-04-20T19:44:42.345Z,56.17
2019-04-20T19:47:18.475Z,57.56
2019-04-20T19:49:37.026Z,59.46
2019-04-20T19:52:28.238Z,58.25
2019-04-20T19:54:48.451Z,57.98
2019-04-20T19:57:10.425Z,56.16
2019-04-20T19:59:35.691Z,54.50
2019-04-20T20:01:58.012Z,54.32
2019-04-20T20:04:26.299Z,54.50
2019-04-20T20:07:01.846Z,55.39
2019-04-20T20:09:25.826Z,57.15
2019-04-20T20:11:56.125Z,57.93
2019-04-20T20:14:30.605Z,57.37
2019-04-20T20:17:08.944Z,58.41
2019-04-20T20:19:38.091Z,54.96
2019-04-20T20:22:05.574Z,55.98
2019-04-20T20:24:25.180Z,57.22
2019-04-20T20:27:00.473Z,58.75
2019-04-20T20:29:30.521Z,59.34
2019-04-20T20:32:06.132Z,58.59
2019-04-20T20:34:30.969Z,57.43
2019-04-20T20:36:59.824Z,57.13
2019-04-20T20:39:27.679Z,58.08
2019-04-20T20:42:06.558Z,58.99
2019-04-20T20:44:33.135Z,59.88
2019-04-20T20:47:00.812Z,60.43
2019-04-20T20:49:48.806Z,58.40
2019-04-20T20:52:14.580Z,59.05
2019-04-20T20:54:36.418Z,59.10
2019-04-20T20:57:02.904Z,58.76
2019-04-20T20:59:35.838Z,59.06
2019-04-20T21:02:04.388Z,60.01
2019-04-20T21:04:23.771Z,62.85
2019-04-20T21:06:52.819Z,62.49
2019-04-20T21:09:24.168Z,61.90
2019-04-20T21:12:00.596Z,62.52
2019-04-20T21:14:27.182Z,63.59
2019-04-20T21:17:01.297Z,61.11
2019-04-20T21:19:41.865Z,59.98
2019-04-20T21:21:59.840Z,60.85
2019-04-20T21:24:23.692Z,64.29
2019-04-20T21:26:53.824Z,65.20
2019-04-20T21:29:31.763Z,64.82
2019-04-20T21:31:59.904Z,63.64
2019-04-20T21:34:23.651Z,63.64
2019-04-20T21:36:56.210Z,63.99
2019-04-20T21:39:34.589Z,64.65
2019-04-20T21:41:57.228Z,65.58
2019-04-20T21:44:28.712Z,66.01
2019-04-20T21:46:54.643Z,65.11
2019-04-20T21:49:35.889Z,63.96
2019-04-20T21:51:58.638Z,64.61
2019-04-20T21:54:22.335Z,65.89
2019-04-20T21:56:56.102Z,66.73
2019-04-20T21:59:28.039Z,67.54
2019-04-20T22:02:01.319Z,66.64
2019-04-20T22:04:22.901Z,65.60
2019-04-20T22:06:52.026Z,65.66
2019-04-20T22:09:20.485Z,65.26
2019-04-20T22:11:49.778Z,65.10
2019-04-20T22:14:22.471Z,65.49
2019-04-20T22:16:51.668Z,65.83
2019-04-20T22:19:30.672Z,66.84
2019-04-20T22:22:00.562Z,66.53
2019-04-20T22:24:34.297Z,65.70
2019-04-20T22:27:02.638Z,65.03
2019-04-20T22:29:18.395Z,65.26
2019-04-20T22:31:56.502Z,65.08
2019-04-20T22:34:20.966Z,65.03
2019-04-20T22:36:48.667Z,65.35
2019-04-20T22:39:39.654Z,65.32
2019-04-20T22:42:08.483Z,66.28
2019-04-20T22:44:34.828Z,67.24
2019-04-20T22:47:05.462Z,67.24
2019-04-20T22:49:48.183Z,67.83
2019-04-20T22:52:18.513Z,67.73
2019-04-20T22:54:52.146Z,67.95
2019-04-20T22:57:12.946Z,68.03
2019-04-20T22:59:42.168Z,68.47
2019-04-20T23:02:05.632Z,68.90
2019-04-20T23:04:33.187Z,69.01
2019-04-20T23:07:03.109Z,69.16
2019-04-20T23:09:34.133Z,69.04
2019-04-20T23:12:09.125Z,69.27
2019-04-20T23:14:32.145Z,69.05
2019-04-20T23:17:00.464Z,69.06
2019-04-20T23:19:39.533Z,69.09
2019-04-20T23:22:03.500Z,69.67
2019-04-20T23:24:29.225Z,69.83
2019-04-20T23:26:57.469Z,70.40
2019-04-20T23:29:29.571Z,71.11
2019-04-20T23:32:01.357Z,73.21
2019-04-20T23:34:30.139Z,74.96
2019-04-20T23:36:56.741Z,75.86
2019-04-20T23:39:30.151Z,75.81
2019-04-20T23:42:00.384Z,77.08
2019-04-20T23:44:29.434Z,77.39
2019-04-20T23:47:06.212Z,78.07
2019-04-20T23:49:50.618Z,79.57
2019-04-20T23:52:26.993Z,80.51
2019-04-20T23:54:33.998Z,81.55
2019-04-20T23:57:01.775Z,82.18
2019-04-20T23:59:35.775Z,82.75
